createdAt,value
2023-05-19T00:00:50.604Z,5.40
2023-05-19T00:01:48.979Z,5.40
2023-05-19T00:02:49.041Z,5.50
2023-05-19T00:03:48.945Z,10.80
2023-05-19T00:04:48.931Z,7.40
2023-05-19T00:05:48.980Z,6.10
2023-05-19T00:06:48.937Z,5.50
2023-05-19T00:07:48.929Z,10.40
2023-05-19T00:08:48.950Z,4.80
2023-05-19T00:09:48.919Z,5.30
2023-05-19T00:10:48.913Z,6.40
2023-05-19T00:11:48.923Z,6.60
2023-05-19T00:12:48.905Z,5.90
2023-05-19T00:13:48.900Z,6.90
2023-05-19T00:14:48.895Z,7.60
2023-05-19T00:15:48.915Z,7.70
2023-05-19T00:16:48.866Z,5.60
2023-05-19T00:17:48.895Z,7.60
2023-05-19T00:18:49.913Z,8.60
2023-05-19T00:19:49.375Z,7.30
2023-05-19T00:20:48.867Z,6.50
2023-05-19T00:21:48.840Z,4.80
2023-05-19T00:22:48.842Z,5.90
2023-05-19T00:23:48.845Z,7.60
2023-05-19T00:24:48.838Z,5.10
2023-05-19T00:25:48.850Z,9.00
2023-05-19T00:26:48.803Z,5.90
2023-05-19T00:27:48.808Z,6.50
2023-05-19T00:28:48.799Z,7.90
2023-05-19T00:29:48.831Z,5.50
2023-05-19T00:30:48.802Z,7.40
2023-05-19T00:31:48.830Z,11.10
2023-05-19T00:32:48.826Z,6.00
2023-05-19T00:33:48.781Z,6.40
2023-05-19T00:34:48.783Z,5.40
2023-05-19T00:35:48.759Z,7.30
2023-05-19T00:36:48.745Z,5.60
2023-05-19T00:37:48.786Z,6.50
2023-05-19T00:38:48.745Z,7.00
2023-05-19T00:39:48.731Z,7.70
2023-05-19T00:40:48.747Z,5.40
2023-05-19T00:41:48.742Z,7.30
2023-05-19T00:42:48.768Z,6.20
2023-05-19T00:43:48.749Z,6.40
2023-05-19T00:44:48.728Z,7.20
2023-05-19T00:45:48.717Z,4.90
2023-05-19T00:46:48.751Z,7.30
2023-05-19T00:47:48.779Z,6.60
2023-05-19T00:48:48.710Z,7.10
2023-05-19T00:49:48.694Z,6.70
2023-05-19T00:50:48.691Z,7.60
2023-05-19T00:51:48.691Z,6.80
2023-05-19T00:52:48.662Z,8.70
2023-05-19T00:53:48.670Z,7.50
2023-05-19T00:54:48.659Z,9.20
2023-05-19T00:55:48.675Z,8.20
2023-05-19T00:56:48.630Z,9.40
2023-05-19T00:57:48.633Z,7.70
2023-05-19T00:58:48.629Z,8.00
2023-05-19T00:59:48.621Z,8.00
2023-05-19T01:00:48.648Z,8.40
2023-05-19T01:01:48.600Z,6.80
2023-05-19T01:02:48.720Z,6.60
2023-05-19T01:03:48.780Z,5.70
2023-05-19T01:04:48.606Z,8.90
2023-05-19T01:05:48.636Z,8.20
2023-05-19T01:06:48.669Z,6.90
2023-05-19T01:07:48.567Z,7.70
2023-05-19T01:08:48.578Z,7.70
2023-05-19T01:09:48.576Z,7.90
2023-05-19T01:10:48.550Z,5.30
2023-05-19T01:11:48.550Z,6.70
2023-05-19T01:12:48.557Z,10.20
2023-05-19T01:13:48.973Z,5.80
2023-05-19T01:14:49.396Z,6.70
2023-05-19T01:15:48.556Z,7.90
2023-05-19T01:16:48.712Z,8.10
2023-05-19T01:17:48.570Z,10.60
2023-05-19T01:18:48.551Z,8.50
2023-05-19T01:19:48.540Z,9.20
2023-05-19T01:20:48.510Z,9.80
2023-05-19T01:21:48.498Z,7.70
2023-05-19T01:22:49.408Z,8.50
2023-05-19T01:23:48.488Z,8.70
2023-05-19T01:24:49.392Z,9.60
2023-05-19T01:25:48.556Z,6.50
2023-05-19T01:26:48.462Z,11.70
2023-05-19T01:27:48.485Z,9.20
2023-05-19T01:28:48.458Z,8.50
2023-05-19T01:29:48.530Z,9.70
2023-05-19T01:30:48.451Z,14.90
2023-05-19T01:31:48.525Z,9.60
2023-05-19T01:32:48.529Z,9.40
2023-05-19T01:33:48.428Z,8.90
2023-05-19T01:34:49.405Z,9.60
2023-05-19T01:35:48.492Z,8.00
2023-05-19T01:36:48.417Z,9.50
2023-05-19T01:37:48.414Z,9.30
2023-05-19T01:38:48.410Z,8.40
2023-05-19T01:39:49.390Z,8.90
2023-05-19T01:40:48.437Z,10.90
2023-05-19T01:41:48.373Z,11.00
2023-05-19T01:42:48.370Z,9.30
2023-05-19T01:43:48.392Z,8.60
2023-05-19T01:44:49.378Z,8.50
2023-05-19T01:45:48.482Z,9.30
2023-05-19T01:46:48.342Z,11.30
2023-05-19T01:47:48.378Z,9.60
2023-05-19T01:48:48.319Z,9.90
2023-05-19T01:49:48.356Z,7.00
2023-05-19T01:50:48.341Z,6.90
2023-05-19T01:51:48.302Z,9.00
2023-05-19T01:52:48.326Z,9.40
2023-05-19T01:53:48.298Z,7.60
2023-05-19T01:54:48.962Z,7.30
2023-05-19T01:55:48.440Z,6.20
2023-05-19T01:56:48.274Z,7.40
2023-05-19T01:57:48.258Z,7.20
2023-05-19T01:58:48.266Z,8.50
2023-05-19T01:59:48.332Z,8.30
2023-05-19T02:00:48.292Z,7.80
2023-05-19T02:01:48.301Z,7.30
2023-05-19T02:02:48.246Z,8.40
2023-05-19T02:03:48.282Z,8.00
2023-05-19T02:04:49.039Z,7.60
2023-05-19T02:05:48.277Z,8.50
2023-05-19T02:06:48.209Z,7.80
2023-05-19T02:07:48.212Z,8.30
2023-05-19T02:08:48.213Z,8.20
2023-05-19T02:09:48.264Z,7.90
2023-05-19T02:10:48.189Z,9.70
2023-05-19T02:11:48.184Z,9.60
2023-05-19T02:12:48.172Z,7.00
2023-05-19T02:13:48.181Z,9.80
2023-05-19T02:14:48.179Z,8.90
2023-05-19T02:15:48.200Z,8.30
2023-05-19T02:16:48.381Z,7.70
2023-05-19T02:17:48.322Z,9.50
2023-05-19T02:18:48.175Z,8.40
2023-05-19T02:19:48.267Z,9.10
2023-05-19T02:20:48.133Z,7.50
2023-05-19T02:21:49.153Z,10.40
2023-05-19T02:22:48.138Z,10.10
2023-05-19T02:23:48.108Z,9.60
2023-05-19T02:24:48.153Z,11.30
2023-05-19T02:25:48.105Z,9.30
2023-05-19T02:26:48.091Z,8.20
2023-05-19T02:27:48.107Z,9.40
2023-05-19T02:28:48.101Z,9.80
2023-05-19T02:29:48.074Z,7.40
2023-05-19T02:30:48.054Z,11.00
2023-05-19T02:31:48.144Z,8.70
2023-05-19T02:32:48.165Z,7.10
2023-05-19T02:33:48.050Z,8.90
2023-05-19T02:34:48.045Z,10.50
2023-05-19T02:35:48.046Z,6.70
2023-05-19T02:36:48.045Z,8.70
2023-05-19T02:37:48.086Z,8.60
2023-05-19T02:38:48.028Z,10.10
2023-05-19T02:39:48.040Z,7.70
2023-05-19T02:40:48.008Z,9.00
2023-05-19T02:41:48.002Z,8.40
2023-05-19T02:42:48.020Z,8.10
2023-05-19T02:43:47.973Z,8.20
2023-05-19T02:44:47.986Z,10.00
2023-05-19T02:45:47.986Z,6.60
2023-05-19T02:46:48.030Z,7.50
2023-05-19T02:47:47.998Z,9.50
2023-05-19T02:48:47.970Z,8.90
2023-05-19T02:49:47.989Z,11.20
2023-05-19T02:50:47.947Z,8.60
2023-05-19T02:51:47.945Z,7.90
2023-05-19T02:52:47.927Z,11.10
2023-05-19T02:53:47.931Z,8.60
2023-05-19T02:54:47.949Z,8.70
2023-05-19T02:55:47.938Z,7.00
2023-05-19T02:56:47.929Z,8.80
2023-05-19T02:57:47.944Z,9.80
2023-05-19T02:58:47.928Z,7.50
2023-05-19T02:59:47.895Z,6.90
2023-05-19T03:00:47.929Z,4.90
2023-05-19T03:01:47.922Z,8.70
2023-05-19T03:02:47.987Z,8.90
2023-05-19T03:03:48.011Z,7.90
2023-05-19T03:04:47.868Z,6.70
2023-05-19T03:05:47.884Z,5.50
2023-05-19T03:06:47.850Z,6.60
2023-05-19T03:07:47.851Z,7.00
2023-05-19T03:08:47.832Z,8.50
2023-05-19T03:09:47.836Z,8.50
2023-05-19T03:10:47.817Z,9.70
2023-05-19T03:11:47.833Z,8.40
2023-05-19T03:12:48.855Z,9.30
2023-05-19T03:13:47.836Z,7.20
2023-05-19T03:14:47.820Z,8.80
2023-05-19T03:15:47.853Z,7.40
2023-05-19T03:16:47.889Z,8.20
2023-05-19T03:17:47.842Z,8.30
2023-05-19T03:18:47.898Z,6.80
2023-05-19T03:19:47.846Z,9.60
2023-05-19T03:20:47.775Z,11.90
2023-05-19T03:21:47.768Z,18.30
2023-05-19T03:22:47.744Z,13.50
2023-05-19T03:23:47.759Z,16.90
2023-05-19T03:24:47.738Z,11.50
2023-05-19T03:25:47.729Z,12.10
2023-05-19T03:26:47.786Z,9.20
2023-05-19T03:27:47.760Z,10.50
2023-05-19T03:28:47.737Z,9.10
2023-05-19T03:29:47.725Z,9.30
2023-05-19T03:30:47.704Z,7.10
2023-05-19T03:31:47.700Z,10.90
2023-05-19T03:32:47.866Z,10.00
2023-05-19T03:33:47.728Z,9.80
2023-05-19T03:34:47.904Z,10.00
2023-05-19T03:35:47.663Z,8.50
2023-05-19T03:36:47.692Z,7.40
2023-05-19T03:37:47.696Z,10.60
2023-05-19T03:38:47.660Z,9.20
2023-05-19T03:39:48.341Z,8.20
2023-05-19T03:40:47.642Z,8.20
2023-05-19T03:41:47.665Z,6.70
2023-05-19T03:42:47.747Z,8.40
2023-05-19T03:43:47.649Z,6.50
2023-05-19T03:44:48.387Z,8.40
2023-05-19T03:45:47.647Z,9.90
2023-05-19T03:46:47.607Z,8.70
2023-05-19T03:47:47.670Z,6.70
2023-05-19T03:48:47.611Z,8.60
2023-05-19T03:49:48.382Z,8.00
2023-05-19T03:50:47.606Z,9.80
2023-05-19T03:51:47.588Z,10.30
2023-05-19T03:52:47.573Z,6.90
2023-05-19T03:53:47.556Z,6.20
2023-05-19T03:54:48.285Z,9.40
2023-05-19T03:55:47.557Z,8.60
2023-05-19T03:56:47.541Z,8.00
2023-05-19T03:57:47.579Z,10.20
2023-05-19T03:58:47.550Z,8.90
2023-05-19T03:59:48.328Z,7.50
2023-05-19T04:00:47.511Z,9.30
2023-05-19T04:01:47.548Z,8.30
2023-05-19T04:02:47.559Z,6.90
2023-05-19T04:03:47.572Z,7.50
2023-05-19T04:04:47.668Z,7.60
2023-05-19T04:05:47.602Z,9.50
2023-05-19T04:06:47.509Z,9.20
2023-05-19T04:07:47.484Z,9.70
2023-05-19T04:08:47.488Z,8.70
2023-05-19T04:09:47.585Z,7.60
2023-05-19T04:10:47.469Z,8.90
2023-05-19T04:11:47.472Z,8.50
2023-05-19T04:12:47.441Z,7.00
2023-05-19T04:13:47.443Z,7.80
2023-05-19T04:14:47.467Z,7.50
2023-05-19T04:15:47.492Z,8.40
2023-05-19T04:16:47.431Z,8.90
2023-05-19T04:17:47.427Z,9.40
2023-05-19T04:18:47.543Z,12.20
2023-05-19T04:19:47.412Z,26.90
2023-05-19T04:20:47.409Z,69.00
2023-05-19T04:21:47.387Z,128.20
2023-05-19T04:22:47.376Z,72.20
2023-05-19T04:23:47.402Z,182.00
2023-05-19T04:24:47.408Z,276.70
2023-05-19T04:25:47.359Z,203.80
2023-05-19T04:26:47.389Z,316.70
2023-05-19T04:27:47.362Z,345.10
2023-05-19T04:28:47.461Z,122.00
2023-05-19T04:29:47.373Z,147.20
2023-05-19T04:30:47.365Z,87.70
2023-05-19T04:31:47.363Z,117.20
2023-05-19T04:32:47.331Z,87.70
2023-05-19T04:33:47.317Z,50.90
2023-05-19T04:34:47.313Z,42.30
2023-05-19T04:35:47.302Z,41.50
2023-05-19T04:36:47.310Z,37.90
2023-05-19T04:37:47.341Z,28.70
2023-05-19T04:38:47.898Z,25.90
2023-05-19T04:39:47.261Z,23.50
2023-05-19T04:40:47.293Z,21.30
2023-05-19T04:41:47.278Z,21.40
2023-05-19T04:42:47.238Z,24.10
2023-05-19T04:43:47.296Z,18.90
2023-05-19T04:44:47.247Z,20.30
2023-05-19T04:45:47.248Z,25.00
2023-05-19T04:46:47.267Z,17.40
2023-05-19T04:47:47.281Z,17.50
2023-05-19T04:48:47.222Z,18.40
2023-05-19T04:49:47.216Z,16.70
2023-05-19T04:50:47.211Z,17.60
2023-05-19T04:51:47.217Z,38.20
2023-05-19T04:52:47.200Z,77.10
2023-05-19T04:53:48.188Z,170.40
2023-05-19T04:54:47.214Z,286.30
2023-05-19T04:55:47.169Z,296.00
2023-05-19T04:56:47.179Z,107.70
2023-05-19T04:57:47.174Z,131.80
2023-05-19T04:58:47.169Z,41.00
2023-05-19T04:59:47.172Z,201.30
2023-05-19T05:00:47.172Z,181.50
2023-05-19T05:01:48.202Z,195.00
2023-05-19T05:02:47.243Z,232.40
2023-05-19T05:03:47.173Z,261.00
2023-05-19T05:04:47.130Z,272.70
2023-05-19T05:05:47.119Z,269.30
2023-05-19T05:06:47.150Z,180.90
2023-05-19T05:07:47.118Z,106.20
2023-05-19T05:08:47.122Z,88.20
2023-05-19T05:09:47.118Z,57.70
2023-05-19T05:10:47.099Z,48.50
2023-05-19T05:11:47.081Z,53.40
2023-05-19T05:12:47.064Z,38.80
2023-05-19T05:13:47.077Z,37.50
2023-05-19T05:14:47.080Z,26.80
2023-05-19T05:15:47.075Z,17.60
2023-05-19T05:16:47.137Z,20.80
2023-05-19T05:17:47.110Z,13.80
2023-05-19T05:18:47.118Z,13.70
2023-05-19T05:19:47.059Z,14.00
2023-05-19T05:20:47.040Z,12.40
2023-05-19T05:21:47.061Z,7.10
2023-05-19T05:22:47.020Z,9.90
2023-05-19T05:23:47.002Z,13.60
2023-05-19T05:24:47.350Z,9.00
2023-05-19T05:25:46.984Z,8.70
2023-05-19T05:26:46.994Z,10.30
2023-05-19T05:27:47.002Z,9.60
2023-05-19T05:28:46.974Z,11.00
2023-05-19T05:29:47.005Z,9.20
2023-05-19T05:30:46.962Z,10.40
2023-05-19T05:31:46.981Z,7.50
2023-05-19T05:32:47.010Z,10.60
2023-05-19T05:33:47.058Z,6.90
2023-05-19T05:34:46.947Z,8.00
2023-05-19T05:35:46.993Z,9.50
2023-05-19T05:36:46.956Z,8.70
2023-05-19T05:37:46.939Z,8.70
2023-05-19T05:38:46.914Z,9.70
2023-05-19T05:39:46.912Z,10.20
2023-05-19T05:40:46.940Z,8.40
2023-05-19T05:41:46.905Z,9.60
2023-05-19T05:42:46.892Z,6.80
2023-05-19T05:43:46.922Z,7.90
2023-05-19T05:44:46.885Z,9.60
2023-05-19T05:45:46.901Z,8.10
2023-05-19T05:46:46.898Z,10.30
2023-05-19T05:47:47.002Z,8.10
2023-05-19T05:48:46.864Z,8.90
2023-05-19T05:49:46.888Z,13.20
2023-05-19T05:50:46.901Z,12.00
2023-05-19T05:51:57.965Z,7.80
2023-05-19T05:52:48.893Z,13.40
2023-05-19T05:53:46.866Z,10.60
2023-05-19T05:54:46.830Z,8.80
2023-05-19T05:55:46.879Z,8.70
2023-05-19T05:56:46.831Z,9.90
2023-05-19T05:57:47.397Z,9.00
2023-05-19T05:58:46.865Z,9.80
2023-05-19T05:59:46.788Z,8.00
2023-05-19T06:00:46.792Z,7.80
2023-05-19T06:01:46.831Z,11.90
2023-05-19T06:02:46.875Z,10.40
2023-05-19T06:03:46.908Z,8.30
2023-05-19T06:04:46.768Z,12.30
2023-05-19T06:05:46.815Z,12.70
2023-05-19T06:06:47.839Z,8.20
2023-05-19T06:07:46.799Z,9.40
2023-05-19T06:08:46.742Z,9.80
2023-05-19T06:09:46.775Z,8.10
2023-05-19T06:10:47.546Z,8.40
2023-05-19T06:11:47.844Z,9.30
2023-05-19T06:12:46.719Z,11.00
2023-05-19T06:13:47.487Z,8.00
2023-05-19T06:14:46.770Z,6.90
2023-05-19T06:15:46.763Z,7.80
2023-05-19T06:16:46.754Z,10.70
2023-05-19T06:17:49.616Z,9.50
2023-05-19T06:18:46.766Z,6.80
2023-05-19T06:19:46.704Z,7.90
2023-05-19T06:20:46.695Z,10.50
2023-05-19T06:21:46.670Z,10.30
2023-05-19T06:22:46.694Z,10.00
2023-05-19T06:23:46.717Z,8.20
2023-05-19T06:24:46.657Z,6.60
2023-05-19T06:25:46.649Z,7.40
2023-05-19T06:26:46.684Z,8.30
2023-05-19T06:27:46.652Z,5.70
2023-05-19T06:28:46.657Z,7.90
2023-05-19T06:29:46.641Z,10.20
2023-05-19T06:30:46.652Z,7.70
2023-05-19T06:31:46.691Z,6.00
2023-05-19T06:32:46.651Z,7.30
2023-05-19T06:33:46.614Z,6.30
2023-05-19T06:34:46.648Z,8.60
2023-05-19T06:35:46.677Z,6.90
2023-05-19T06:36:46.627Z,8.60
2023-05-19T06:37:46.584Z,10.00
2023-05-19T06:38:46.612Z,11.70
2023-05-19T06:39:46.615Z,9.20
2023-05-19T06:40:46.618Z,10.50
2023-05-19T06:41:46.581Z,17.30
2023-05-19T06:42:47.393Z,22.10
2023-05-19T06:43:46.527Z,12.80
2023-05-19T06:44:46.535Z,9.80
2023-05-19T06:45:46.566Z,10.50
2023-05-19T06:46:46.614Z,9.10
2023-05-19T06:47:46.532Z,10.50
2023-05-19T06:48:47.493Z,11.60
2023-05-19T06:49:46.501Z,9.20
2023-05-19T06:50:46.497Z,5.80
2023-05-19T06:51:46.505Z,8.20
2023-05-19T06:52:46.486Z,6.70
2023-05-19T06:53:46.479Z,9.40
2023-05-19T06:54:46.472Z,5.90
2023-05-19T06:55:57.911Z,6.70
2023-05-19T06:56:48.465Z,11.30
2023-05-19T06:57:46.554Z,10.00
2023-05-19T06:58:46.455Z,7.10
2023-05-19T06:59:46.448Z,7.60
2023-05-19T07:00:46.477Z,6.30
2023-05-19T07:01:46.478Z,9.10
2023-05-19T07:02:46.580Z,6.40
2023-05-19T07:03:46.525Z,6.50
2023-05-19T07:04:46.426Z,9.70
2023-05-19T07:05:46.398Z,6.60
2023-05-19T07:06:46.374Z,7.70
2023-05-19T07:07:46.466Z,6.70
2023-05-19T07:08:46.451Z,7.00
2023-05-19T07:09:46.363Z,6.50
2023-05-19T07:10:46.391Z,6.40
2023-05-19T07:11:46.412Z,6.20
2023-05-19T07:12:46.351Z,7.80
2023-05-19T07:13:46.383Z,5.20
2023-05-19T07:14:46.350Z,6.30
2023-05-19T07:15:47.383Z,10.20
2023-05-19T07:16:46.658Z,9.10
2023-05-19T07:17:46.358Z,7.20
2023-05-19T07:18:46.352Z,9.00
2023-05-19T07:19:46.394Z,7.20
2023-05-19T07:20:46.392Z,4.30
2023-05-19T07:21:46.376Z,6.00
2023-05-19T07:22:46.508Z,10.10
2023-05-19T07:23:46.274Z,6.80
2023-05-19T07:24:46.304Z,8.20
2023-05-19T07:25:46.269Z,7.00
2023-05-19T07:26:46.286Z,7.20
2023-05-19T07:27:46.233Z,8.60
2023-05-19T07:28:46.645Z,6.50
2023-05-19T07:29:46.257Z,6.60
2023-05-19T07:30:46.243Z,6.00
2023-05-19T07:31:46.327Z,8.20
2023-05-19T07:32:46.289Z,8.40
2023-05-19T07:33:46.248Z,7.20
2023-05-19T07:34:46.196Z,9.80
2023-05-19T07:35:46.214Z,6.80
2023-05-19T07:36:46.218Z,7.70
2023-05-19T07:37:46.193Z,7.10
2023-05-19T07:38:46.251Z,6.20
2023-05-19T07:39:46.234Z,5.60
2023-05-19T07:40:46.256Z,7.60
2023-05-19T07:41:46.215Z,6.50
2023-05-19T07:42:46.197Z,5.40
2023-05-19T07:43:46.160Z,6.10
2023-05-19T07:44:46.153Z,5.70
2023-05-19T07:45:46.176Z,7.40
2023-05-19T07:46:47.266Z,6.60
2023-05-19T07:47:46.174Z,5.50
2023-05-19T07:48:46.123Z,9.30
2023-05-19T07:49:46.162Z,6.20
2023-05-19T07:50:46.135Z,7.50
2023-05-19T07:51:46.215Z,9.60
2023-05-19T07:52:46.108Z,5.80
2023-05-19T07:53:46.099Z,5.20
2023-05-19T07:54:46.091Z,7.00
2023-05-19T07:55:46.204Z,5.90
2023-05-19T07:56:46.100Z,6.00
2023-05-19T07:57:46.173Z,7.50
2023-05-19T07:58:46.137Z,7.30
2023-05-19T07:59:46.264Z,8.40
2023-05-19T08:00:46.107Z,4.80
2023-05-19T08:01:46.042Z,7.20
2023-05-19T08:02:46.178Z,5.40
2023-05-19T08:03:46.192Z,9.40
2023-05-19T08:04:46.056Z,6.00
2023-05-19T08:05:46.027Z,6.30
2023-05-19T08:06:46.001Z,7.80
2023-05-19T08:07:45.998Z,8.00
2023-05-19T08:08:46.044Z,6.30
2023-05-19T08:09:46.024Z,5.50
2023-05-19T08:10:45.965Z,4.70
2023-05-19T08:11:46.029Z,5.60
2023-05-19T08:12:45.957Z,5.30
2023-05-19T08:13:45.963Z,5.00
2023-05-19T08:14:45.954Z,6.10
2023-05-19T08:15:45.975Z,4.60
2023-05-19T08:16:45.970Z,8.80
2023-05-19T08:17:45.999Z,6.40
2023-05-19T08:18:46.012Z,6.10
2023-05-19T08:19:45.961Z,7.50
2023-05-19T08:20:46.000Z,4.90
2023-05-19T08:21:45.947Z,5.20
2023-05-19T08:22:45.933Z,6.00
2023-05-19T08:23:45.922Z,7.30
2023-05-19T08:24:45.952Z,6.20
2023-05-19T08:25:46.025Z,6.00
2023-05-19T08:26:45.951Z,9.30
2023-05-19T08:27:45.928Z,4.10
2023-05-19T08:28:45.867Z,6.30
2023-05-19T08:29:45.885Z,6.70
2023-05-19T08:30:45.974Z,5.50
2023-05-19T08:31:46.008Z,5.20
2023-05-19T08:32:45.918Z,5.90
2023-05-19T08:33:45.951Z,4.40
2023-05-19T08:34:45.890Z,6.00
2023-05-19T08:35:45.912Z,5.60
2023-05-19T08:36:45.921Z,6.70
2023-05-19T08:37:45.863Z,5.30
2023-05-19T08:38:46.090Z,4.30
2023-05-19T08:39:45.852Z,7.10
2023-05-19T08:40:45.859Z,5.50
2023-05-19T08:41:45.906Z,4.10
2023-05-19T08:42:45.875Z,4.90
2023-05-19T08:43:45.791Z,4.20
2023-05-19T08:44:45.794Z,5.30
2023-05-19T08:45:45.784Z,5.50
2023-05-19T08:46:45.843Z,4.20
2023-05-19T08:47:45.803Z,5.40
2023-05-19T08:48:45.777Z,7.60
2023-05-19T08:49:45.762Z,5.00
2023-05-19T08:50:45.764Z,5.20
2023-05-19T08:51:45.756Z,5.30
2023-05-19T08:52:49.495Z,5.60
2023-05-19T08:53:46.741Z,4.30
2023-05-19T08:54:45.724Z,5.00
2023-05-19T08:55:45.706Z,4.90
2023-05-19T08:56:45.809Z,4.50
2023-05-19T08:57:45.729Z,4.50
2023-05-19T08:58:45.692Z,8.50
2023-05-19T08:59:45.716Z,6.80
2023-05-19T09:00:45.697Z,8.60
2023-05-19T09:01:46.534Z,5.80
2023-05-19T09:02:55.172Z,9.20
2023-05-19T09:03:47.684Z,3.50
2023-05-19T09:04:45.742Z,4.00
2023-05-19T09:05:45.687Z,5.90
2023-05-19T09:06:45.625Z,6.90
2023-05-19T09:07:46.456Z,6.60
2023-05-19T09:08:45.590Z,3.90
2023-05-19T09:09:45.654Z,5.00
2023-05-19T09:10:45.622Z,5.80
2023-05-19T09:11:46.492Z,5.30
2023-05-19T09:12:45.583Z,4.50
2023-05-19T09:13:45.611Z,6.10
2023-05-19T09:14:45.568Z,4.80
2023-05-19T09:15:45.689Z,3.40
2023-05-19T09:16:45.615Z,4.70
2023-05-19T09:17:45.609Z,6.20
2023-05-19T09:18:45.613Z,4.90
2023-05-19T09:19:45.573Z,5.30
2023-05-19T09:20:45.564Z,4.10
2023-05-19T09:21:45.703Z,2.90
2023-05-19T09:22:45.565Z,5.60
2023-05-19T09:23:45.566Z,5.10
2023-05-19T09:24:45.522Z,6.90
2023-05-19T09:25:45.510Z,7.00
2023-05-19T09:26:45.530Z,4.90
2023-05-19T09:27:45.512Z,4.50
2023-05-19T09:28:45.510Z,6.10
2023-05-19T09:29:45.556Z,4.40
2023-05-19T09:30:45.524Z,4.10
2023-05-19T09:31:45.649Z,5.10
2023-05-19T09:32:45.523Z,3.90
2023-05-19T09:33:46.081Z,4.70
2023-05-19T09:34:46.499Z,4.40
2023-05-19T09:35:45.494Z,4.90
2023-05-19T09:36:45.485Z,3.60
2023-05-19T09:37:45.470Z,7.60
2023-05-19T09:38:45.454Z,10.30
2023-05-19T09:39:45.450Z,4.50
2023-05-19T09:40:45.414Z,4.40
2023-05-19T09:41:45.494Z,5.90
2023-05-19T09:42:45.409Z,6.20
2023-05-19T09:43:45.403Z,4.10
2023-05-19T09:44:45.497Z,4.30
2023-05-19T09:45:45.443Z,6.70
2023-05-19T09:46:45.436Z,3.80
2023-05-19T09:47:45.412Z,6.50
2023-05-19T09:48:45.408Z,5.40
2023-05-19T09:49:45.387Z,6.30
2023-05-19T09:50:45.361Z,5.00
2023-05-19T09:51:45.357Z,4.30
2023-05-19T09:52:45.369Z,4.90
2023-05-19T09:53:45.349Z,4.50
2023-05-19T09:54:45.376Z,6.40
2023-05-19T09:55:45.330Z,5.40
2023-05-19T09:56:45.384Z,4.10
2023-05-19T09:57:45.375Z,5.70
2023-05-19T09:58:45.572Z,6.80
2023-05-19T09:59:45.320Z,4.40
2023-05-19T10:00:45.386Z,5.70
2023-05-19T10:01:45.357Z,4.40
2023-05-19T10:02:45.467Z,3.90
2023-05-19T10:03:45.309Z,5.30
2023-05-19T10:04:45.879Z,4.90
2023-05-19T10:05:45.293Z,2.90
2023-05-19T10:06:45.522Z,5.00
2023-05-19T10:07:46.040Z,4.90
2023-05-19T10:08:45.270Z,4.10
2023-05-19T10:09:45.278Z,3.80
2023-05-19T10:10:45.265Z,3.70
2023-05-19T10:11:45.584Z,2.80
2023-05-19T10:12:45.241Z,5.00
2023-05-19T10:13:45.260Z,5.20
2023-05-19T10:14:45.245Z,4.80
2023-05-19T10:15:57.024Z,4.10
2023-05-19T10:16:47.251Z,7.40
2023-05-19T10:17:45.273Z,3.60
2023-05-19T10:18:45.219Z,2.40
2023-05-19T10:19:45.204Z,4.40
2023-05-19T10:20:45.196Z,4.50
2023-05-19T10:21:45.172Z,2.50
2023-05-19T10:22:45.990Z,3.00
2023-05-19T10:23:45.172Z,3.70
2023-05-19T10:24:45.305Z,2.40
2023-05-19T10:25:45.168Z,3.80
2023-05-19T10:26:45.152Z,4.10
2023-05-19T10:27:45.137Z,3.30
2023-05-19T10:28:45.166Z,4.20
2023-05-19T10:29:45.152Z,6.30
2023-05-19T10:30:45.104Z,4.20
2023-05-19T10:31:45.166Z,4.30
2023-05-19T10:32:45.224Z,3.40
2023-05-19T10:33:45.122Z,3.90
2023-05-19T10:34:45.154Z,3.20
2023-05-19T10:35:46.055Z,3.90
2023-05-19T10:36:46.190Z,4.00
2023-05-19T10:37:45.085Z,3.30
2023-05-19T10:38:46.190Z,3.30
2023-05-19T10:39:45.500Z,4.70
2023-05-19T10:40:45.059Z,3.40
2023-05-19T10:41:45.723Z,3.50
2023-05-19T10:42:45.154Z,5.40
2023-05-19T10:43:46.379Z,3.90
2023-05-19T10:44:45.077Z,6.20
2023-05-19T10:45:45.031Z,10.00
2023-05-19T10:46:45.091Z,7.10
2023-05-19T10:47:45.976Z,5.30
2023-05-19T10:48:45.007Z,3.50
2023-05-19T10:49:45.033Z,4.50
2023-05-19T10:50:45.000Z,3.70
2023-05-19T10:51:44.997Z,3.70
2023-05-19T10:52:45.011Z,6.10
2023-05-19T10:53:44.980Z,4.00
2023-05-19T10:54:44.981Z,3.80
2023-05-19T10:55:44.962Z,7.80
2023-05-19T10:56:44.951Z,3.70
2023-05-19T10:57:45.490Z,3.60
2023-05-19T10:58:44.974Z,6.50
2023-05-19T10:59:45.009Z,4.00
2023-05-19T11:00:45.154Z,4.90
2023-05-19T11:01:45.015Z,3.30
2023-05-19T11:02:44.955Z,3.90
2023-05-19T11:03:44.937Z,4.70
2023-05-19T11:04:45.003Z,5.20
2023-05-19T11:05:44.900Z,3.80
2023-05-19T11:06:44.935Z,3.50
2023-05-19T11:07:44.951Z,2.80
2023-05-19T11:08:44.947Z,2.60
2023-05-19T11:09:45.522Z,3.50
2023-05-19T11:10:44.911Z,4.10
2023-05-19T11:11:44.918Z,4.40
2023-05-19T11:12:44.879Z,3.20
2023-05-19T11:13:44.859Z,2.60
2023-05-19T11:14:45.052Z,4.30
2023-05-19T11:15:44.851Z,3.50
2023-05-19T11:16:44.910Z,3.20
2023-05-19T11:17:44.856Z,5.40
2023-05-19T11:18:44.935Z,3.50
2023-05-19T11:19:44.864Z,4.30
2023-05-19T11:20:44.828Z,5.60
2023-05-19T11:21:44.816Z,2.40
2023-05-19T11:22:44.840Z,4.80
2023-05-19T11:23:44.836Z,5.70
2023-05-19T11:24:44.883Z,5.60
2023-05-19T11:25:44.869Z,3.40
2023-05-19T11:26:45.341Z,4.40
2023-05-19T11:27:44.846Z,4.00
2023-05-19T11:28:44.786Z,5.80
2023-05-19T11:29:47.588Z,3.00
2023-05-19T11:30:44.896Z,4.30
2023-05-19T11:31:44.836Z,3.50
2023-05-19T11:32:44.778Z,3.80
2023-05-19T11:33:44.736Z,3.00
2023-05-19T11:34:44.760Z,4.20
2023-05-19T11:35:44.728Z,4.70
2023-05-19T11:36:44.749Z,4.10
2023-05-19T11:37:44.711Z,3.70
2023-05-19T11:38:44.695Z,4.20
2023-05-19T11:39:44.685Z,4.60
2023-05-19T11:40:44.675Z,5.00
2023-05-19T11:41:44.727Z,2.80
2023-05-19T11:42:44.688Z,4.70
2023-05-19T11:43:44.664Z,4.00
2023-05-19T11:44:44.742Z,4.30
2023-05-19T11:45:44.700Z,2.90
2023-05-19T11:46:44.679Z,4.40
2023-05-19T11:48:00.232Z,4.30
2023-05-19T11:48:46.690Z,2.90
2023-05-19T11:49:44.657Z,4.40
2023-05-19T11:50:44.620Z,5.40
2023-05-19T11:51:44.634Z,6.00
2023-05-19T11:52:44.618Z,4.80
2023-05-19T11:53:44.627Z,2.90
2023-05-19T11:54:44.638Z,2.80
2023-05-19T11:55:44.617Z,3.00
2023-05-19T11:56:44.586Z,2.70
2023-05-19T11:57:56.005Z,3.60
2023-05-19T11:58:45.625Z,4.00
2023-05-19T11:59:44.562Z,3.20
2023-05-19T12:00:44.611Z,5.00
2023-05-19T12:01:44.610Z,3.80
2023-05-19T12:02:46.577Z,2.80
2023-05-19T12:03:45.935Z,3.70
2023-05-19T12:04:46.826Z,3.20
2023-05-19T12:05:45.930Z,4.60
2023-05-19T12:06:47.938Z,5.30
2023-05-19T12:07:51.805Z,8.10
2023-05-19T12:08:47.191Z,4.30
2023-05-19T12:09:45.803Z,3.30
2023-05-19T12:10:47.081Z,2.30
2023-05-19T12:11:47.731Z,3.10
2023-05-19T12:12:46.682Z,3.50
2023-05-19T12:13:45.492Z,3.20
2023-05-19T12:14:46.319Z,2.40
2023-05-19T12:15:55.706Z,2.80
2023-05-19T12:16:44.585Z,3.10
2023-05-19T12:17:45.476Z,3.00
2023-05-19T12:18:44.529Z,4.10
2023-05-19T12:19:44.483Z,3.70
2023-05-19T12:20:44.479Z,3.40
2023-05-19T12:21:44.452Z,4.50
2023-05-19T12:22:44.441Z,2.60
2023-05-19T12:23:44.439Z,2.60
2023-05-19T12:24:44.533Z,3.00
2023-05-19T12:25:44.452Z,3.00
2023-05-19T12:26:44.459Z,3.60
2023-05-19T12:27:44.469Z,2.40
2023-05-19T12:28:45.409Z,2.80
2023-05-19T12:29:44.401Z,3.50
2023-05-19T12:30:44.415Z,4.00
2023-05-19T12:31:44.415Z,2.20
2023-05-19T12:32:44.382Z,4.90
2023-05-19T12:33:44.992Z,3.10
2023-05-19T12:34:44.380Z,3.60
2023-05-19T12:35:44.381Z,3.00
2023-05-19T12:36:44.350Z,2.70
2023-05-19T12:37:44.406Z,4.20
2023-05-19T12:38:44.358Z,3.50
2023-05-19T12:39:44.398Z,3.00
2023-05-19T12:40:44.324Z,3.60
2023-05-19T12:41:44.319Z,2.60
2023-05-19T12:42:44.311Z,3.20
2023-05-19T12:43:44.329Z,3.20
2023-05-19T12:44:44.299Z,5.40
2023-05-19T12:45:44.316Z,3.20
2023-05-19T12:46:44.309Z,5.50
2023-05-19T12:47:44.411Z,3.70
2023-05-19T12:48:44.297Z,4.00
2023-05-19T12:49:44.330Z,3.60
2023-05-19T12:50:45.484Z,4.30
2023-05-19T12:51:44.299Z,2.50
2023-05-19T12:52:44.262Z,4.60
2023-05-19T12:53:44.277Z,4.10
2023-05-19T12:54:44.270Z,3.20
2023-05-19T12:55:44.275Z,4.20
2023-05-19T12:56:44.244Z,4.70
2023-05-19T12:57:44.245Z,2.20
2023-05-19T12:58:44.264Z,4.50
2023-05-19T12:59:44.265Z,3.40
2023-05-19T13:00:44.385Z,2.30
2023-05-19T13:01:44.239Z,5.50
2023-05-19T13:02:44.313Z,4.00
2023-05-19T13:03:44.328Z,3.40
2023-05-19T13:04:44.219Z,2.30
2023-05-19T13:05:44.192Z,4.70
2023-05-19T13:06:44.224Z,2.30
2023-05-19T13:07:44.178Z,4.00
2023-05-19T13:08:44.201Z,2.20
2023-05-19T13:09:44.215Z,3.00
2023-05-19T13:10:44.155Z,2.80
2023-05-19T13:11:44.174Z,2.90
2023-05-19T13:12:44.142Z,2.40
2023-05-19T13:13:44.130Z,2.80